createdAt,value
2023-04-18T04:00:38.075Z,99206.09
2023-04-18T04:04:53.349Z,99199.63
2023-04-18T04:09:05.052Z,99199.88
2023-04-18T04:13:16.584Z,99198.81
2023-04-18T04:17:28.358Z,99201.50
2023-04-18T04:21:39.969Z,99201.44
2023-04-18T04:25:55.897Z,99207.69
2023-04-18T04:30:22.674Z,99207.44
2023-04-18T04:34:35.632Z,99208.97
2023-04-18T04:38:49.818Z,99207.28
2023-04-18T04:43:03.230Z,99212.22
2023-04-18T04:47:20.874Z,99209.53
2023-04-18T04:51:33.193Z,99215.56
2023-04-18T04:55:45.587Z,99213.19
2023-04-18T04:59:57.278Z,99209.72
2023-04-18T05:04:09.258Z,99213.91
2023-04-18T05:08:21.538Z,99216.88
2023-04-18T05:12:33.392Z,99219.34
2023-04-18T05:16:45.065Z,99208.78
2023-04-18T05:20:56.822Z,99216.66
2023-04-18T05:25:08.605Z,99217.63
2023-04-18T05:29:20.321Z,99218.59
2023-04-18T05:33:32.082Z,99214.63
2023-04-18T05:37:43.557Z,99210.19
2023-04-18T05:41:55.043Z,99211.63
2023-04-18T05:46:06.963Z,99217.03
2023-04-18T05:50:18.520Z,99224.59
2023-04-18T05:54:30.001Z,99217.63
2023-04-18T05:58:43.867Z,99226.22
2023-04-18T06:02:55.502Z,99229.75
2023-04-18T06:07:07.854Z,99251.72
2023-04-18T06:11:21.102Z,99240.63
2023-04-18T06:15:32.698Z,99250.75
2023-04-18T06:19:44.198Z,99244.38
2023-04-18T06:23:55.742Z,99247.00
2023-04-18T06:28:07.308Z,99249.09
2023-04-18T06:32:18.900Z,99255.91
2023-04-18T06:36:31.424Z,99266.63
2023-04-18T06:40:42.954Z,99262.25
2023-04-18T06:44:54.462Z,99261.72
2023-04-18T06:49:05.995Z,99253.53
2023-04-18T06:53:17.528Z,99262.84
2023-04-18T06:57:29.036Z,99257.34
2023-04-18T07:01:42.035Z,99252.09
2023-04-18T07:05:55.476Z,99253.38
2023-04-18T07:10:09.446Z,99257.31
2023-04-18T07:14:24.666Z,99260.38
2023-04-18T07:18:38.330Z,99267.06
2023-04-18T07:22:50.301Z,99264.56
2023-04-18T07:27:03.228Z,99258.19
2023-04-18T07:31:16.397Z,99258.47
2023-04-18T07:35:28.079Z,99247.53
2023-04-18T07:39:39.583Z,99260.25
2023-04-18T07:43:51.121Z,99264.19
2023-04-18T07:48:02.850Z,99254.22
2023-04-18T07:52:14.898Z,99242.06
2023-04-18T07:56:27.087Z,99252.84
2023-04-18T08:00:39.202Z,99245.47
2023-04-18T08:04:51.945Z,99254.78
2023-04-18T08:09:05.643Z,99247.03
2023-04-18T08:13:18.004Z,99255.00
2023-04-18T08:17:30.105Z,99267.88
2023-04-18T08:21:45.301Z,99264.63
2023-04-18T08:25:59.794Z,99272.56
2023-04-18T08:30:12.038Z,99267.50
2023-04-18T08:34:23.946Z,99283.84
2023-04-18T08:38:36.203Z,99277.25
2023-04-18T08:42:48.936Z,99287.91
2023-04-18T08:47:01.819Z,99288.19
2023-04-18T08:51:13.695Z,99285.75
2023-04-18T08:55:25.562Z,99307.69
2023-04-18T08:59:37.319Z,99290.44
2023-04-18T09:03:49.579Z,99312.50
2023-04-18T09:08:21.787Z,99298.22
2023-04-18T09:12:34.497Z,99297.44
2023-04-18T09:16:50.644Z,99306.94
2023-04-18T09:21:20.132Z,99306.41
2023-04-18T09:25:44.456Z,99306.03
2023-04-18T09:29:58.044Z,99307.28
2023-04-18T09:34:24.993Z,99302.06
2023-04-18T09:38:41.290Z,99299.06
2023-04-18T09:42:54.471Z,99300.41
2023-04-18T09:47:07.751Z,99303.41
2023-04-18T09:51:19.921Z,99306.47
2023-04-18T09:55:32.375Z,99313.19
2023-04-18T09:59:54.907Z,99325.63
2023-04-18T10:04:07.865Z,99309.59
2023-04-18T10:08:19.969Z,99309.75
2023-04-18T10:12:31.667Z,99295.44
2023-04-18T10:16:45.511Z,99300.75
2023-04-18T10:21:04.225Z,99300.06
2023-04-18T10:25:34.153Z,99297.91
2023-04-18T10:29:52.958Z,99284.50
2023-04-18T10:34:06.836Z,99287.94
2023-04-18T10:38:23.555Z,99284.03
2023-04-18T10:42:47.232Z,99288.28
2023-04-18T10:46:58.749Z,99290.78
2023-04-18T10:51:18.859Z,99295.31
2023-04-18T10:55:31.232Z,99289.19
2023-04-18T10:59:44.817Z,99279.63
2023-04-18T11:03:57.348Z,99275.81
2023-04-18T11:08:29.153Z,99277.44
2023-04-18T11:12:41.142Z,99279.53
2023-04-18T11:16:53.247Z,99282.59
2023-04-18T11:21:05.564Z,99270.75
2023-04-18T11:25:19.005Z,99273.88
2023-04-18T11:29:30.955Z,99281.69
2023-04-18T11:33:42.485Z,99285.09
2023-04-18T11:37:54.372Z,99291.50
2023-04-18T11:42:05.927Z,99290.22
2023-04-18T11:46:17.914Z,99282.16
2023-04-18T11:50:36.112Z,99283.75
2023-04-18T11:54:47.633Z,99281.16
2023-04-18T11:58:59.171Z,99284.78
2023-04-18T12:03:18.785Z,99283.88
2023-04-18T12:07:33.935Z,99290.38
2023-04-18T12:12:00.793Z,99292.22
2023-04-18T12:16:12.376Z,99277.53
2023-04-18T12:20:25.864Z,99276.13
2023-04-18T12:24:37.919Z,99272.78
2023-04-18T12:28:51.229Z,99261.69
2023-04-18T12:33:04.400Z,99252.34
2023-04-18T12:37:15.945Z,99253.03
2023-04-18T12:41:27.461Z,99252.41
2023-04-18T12:45:38.992Z,99243.63
2023-04-18T12:49:50.491Z,99245.59
2023-04-18T12:54:02.006Z,99255.25
2023-04-18T12:58:18.360Z,99254.25
2023-04-18T13:02:30.263Z,99254.59
2023-04-18T13:06:41.982Z,99247.91
2023-04-18T13:10:53.477Z,99250.81
2023-04-18T13:15:06.753Z,99241.03
2023-04-18T13:19:18.316Z,99245.13
2023-04-18T13:23:29.835Z,99241.34
2023-04-18T13:27:42.072Z,99231.84
2023-04-18T13:31:53.810Z,99226.78
2023-04-18T13:36:05.700Z,99223.53
2023-04-18T13:40:17.224Z,99216.72
2023-04-18T13:44:30.435Z,99217.34
2023-04-18T13:48:41.949Z,99222.53
2023-04-18T13:52:54.458Z,99220.09
2023-04-18T13:57:11.622Z,99207.84
2023-04-18T14:01:23.335Z,99215.03
2023-04-18T14:05:35.807Z,99214.09
2023-04-18T14:09:48.151Z,99213.78
2023-04-18T14:13:59.695Z,99211.47
2023-04-18T14:18:11.215Z,99202.47
2023-04-18T14:22:22.823Z,99206.81
2023-04-18T14:26:34.325Z,99204.66
2023-04-18T14:30:45.962Z,99210.69
2023-04-18T14:35:05.603Z,99199.06
2023-04-18T14:39:17.162Z,99205.16
2023-04-18T14:43:28.685Z,99208.22
2023-04-18T14:47:40.359Z,99192.47
2023-04-18T14:51:51.910Z,99188.94
2023-04-18T14:56:03.649Z,99190.50
2023-04-18T15:00:15.626Z,99195.59
2023-04-18T15:04:27.410Z,99182.50
2023-04-18T15:08:39.076Z,99186.81
2023-04-18T15:12:51.153Z,99184.00
2023-04-18T15:17:05.516Z,99190.56
2023-04-18T15:21:17.041Z,99181.03
2023-04-18T15:25:30.344Z,99182.19
2023-04-18T15:29:41.900Z,99191.06
2023-04-18T15:33:54.389Z,99186.81
2023-04-18T15:38:06.585Z,99178.25
2023-04-18T15:42:18.159Z,99184.53
2023-04-18T15:46:30.023Z,99189.13
2023-04-18T15:50:42.349Z,99185.25
2023-04-18T15:54:53.867Z,99181.91
2023-04-18T15:59:06.084Z,99187.16
2023-04-18T16:03:17.700Z,99192.41
2023-04-18T16:07:29.274Z,99186.97
2023-04-18T16:11:40.839Z,99175.69
2023-04-18T16:15:52.345Z,99194.69
2023-04-18T16:20:04.532Z,99183.53
2023-04-18T16:24:16.623Z,99189.78
2023-04-18T16:28:30.697Z,99197.09
2023-04-18T16:32:42.217Z,99197.13
2023-04-18T16:36:55.602Z,99205.44
2023-04-18T16:41:07.222Z,99207.59
2023-04-18T16:45:18.710Z,99194.84
2023-04-18T16:49:30.336Z,99193.38
2023-04-18T16:53:41.815Z,99192.56
2023-04-18T16:57:53.295Z,99200.59
2023-04-18T17:02:05.048Z,99194.88
2023-04-18T17:06:19.279Z,99199.78
2023-04-18T17:10:31.146Z,99200.59
2023-04-18T17:14:42.632Z,99203.41
2023-04-18T17:18:54.119Z,99196.88
2023-04-18T17:23:05.640Z,99197.81
2023-04-18T17:27:17.134Z,99194.53
2023-04-18T17:31:29.355Z,99193.72
2023-04-18T17:35:41.595Z,99210.16
2023-04-18T17:39:54.557Z,99192.31
2023-04-18T17:44:10.278Z,99213.78
2023-04-18T17:48:21.791Z,99209.69
2023-04-18T17:52:33.321Z,99205.13
2023-04-18T17:56:45.510Z,99218.88
2023-04-18T18:00:57.145Z,99223.50
2023-04-18T18:05:14.746Z,99218.31
2023-04-18T18:09:26.716Z,99221.41
2023-04-18T18:13:41.047Z,99214.22
2023-04-18T18:17:52.882Z,99224.38
2023-04-18T18:22:04.402Z,99225.88
2023-04-18T18:26:16.015Z,99223.44
2023-04-18T18:30:27.679Z,99229.97
2023-04-18T18:34:39.300Z,99226.41
2023-04-18T18:38:51.082Z,99226.88
2023-04-18T18:43:04.978Z,99237.34
2023-04-18T18:47:19.779Z,99247.03
2023-04-18T18:51:31.418Z,99246.53
2023-04-18T18:55:43.001Z,99245.25
2023-04-18T18:59:55.848Z,99250.50
2023-04-18T19:04:08.100Z,99252.63
2023-04-18T19:08:20.204Z,99255.91
2023-04-18T19:12:31.827Z,99253.78
2023-04-18T19:16:43.394Z,99257.38
2023-04-18T19:20:55.045Z,99263.59
2023-04-18T19:25:07.415Z,99265.91
2023-04-18T19:29:19.086Z,99264.25
2023-04-18T19:33:30.698Z,99263.25
2023-04-18T19:37:43.000Z,99266.19
2023-04-18T19:41:54.628Z,99273.41
2023-04-18T19:46:06.194Z,99278.66
2023-04-18T19:50:17.857Z,99272.91
2023-04-18T19:54:33.159Z,99291.03
2023-04-18T19:58:45.030Z,99292.66
2023-04-18T20:02:58.629Z,99294.47
2023-04-18T20:07:10.380Z,99306.72
2023-04-18T20:11:22.220Z,99302.59
2023-04-18T20:15:33.873Z,99300.50
2023-04-18T20:19:47.085Z,99303.41
2023-04-18T20:23:59.255Z,99302.75
2023-04-18T20:28:10.957Z,99306.81
2023-04-18T20:32:22.541Z,99315.28
2023-04-18T20:36:34.365Z,99312.94
2023-04-18T20:40:45.926Z,99330.38
2023-04-18T20:44:58.774Z,99329.38
2023-04-18T20:49:10.650Z,99334.03
2023-04-18T20:53:25.076Z,99335.13
2023-04-18T20:57:36.828Z,99335.19
2023-04-18T21:01:48.489Z,99338.19
2023-04-18T21:06:00.228Z,99344.69
2023-04-18T21:10:11.782Z,99344.50
2023-04-18T21:14:23.659Z,99344.88
2023-04-18T21:18:35.292Z,99355.91
2023-04-18T21:22:46.951Z,99363.38
2023-04-18T21:26:58.710Z,99360.16
